createdAt,value
2018-08-08T00:02:13.390Z,22.10
2018-08-08T00:04:41.090Z,22.30
2018-08-08T00:07:08.750Z,22.40
2018-08-08T00:09:36.430Z,22.50
2018-08-08T00:12:04.126Z,22.80
2018-08-08T00:14:31.717Z,23.00
2018-08-08T00:16:59.306Z,22.90
2018-08-08T00:19:26.903Z,22.70
2018-08-08T00:21:54.568Z,22.50
2018-08-08T00:24:22.175Z,22.50
2018-08-08T00:26:49.810Z,22.40
2018-08-08T00:29:17.406Z,22.40
2018-08-08T00:31:45.023Z,22.30
2018-08-08T00:34:12.614Z,22.40
2018-08-08T00:36:40.268Z,22.30
2018-08-08T00:39:08.782Z,22.30
2018-08-08T00:41:36.427Z,22.30
2018-08-08T00:44:05.326Z,22.20
2018-08-08T00:46:32.946Z,22.20
2018-08-08T00:49:00.566Z,22.20
2018-08-08T00:51:28.222Z,22.10
2018-08-08T00:53:55.867Z,22.10
2018-08-08T00:56:23.574Z,22.10
2018-08-08T00:58:51.167Z,22.10
2018-08-08T01:01:18.846Z,22.10
2018-08-08T01:03:46.575Z,22.10
2018-08-08T01:06:14.209Z,22.00
2018-08-08T01:08:41.910Z,22.00
2018-08-08T01:11:09.570Z,22.10
2018-08-08T01:13:37.278Z,22.20
2018-08-08T01:16:04.977Z,22.20
2018-08-08T01:18:32.474Z,22.10
2018-08-08T01:21:00.092Z,22.10
2018-08-08T01:23:27.766Z,22.00
2018-08-08T01:25:55.329Z,22.00
2018-08-08T01:28:22.986Z,22.00
2018-08-08T01:30:50.606Z,22.00
2018-08-08T01:33:18.210Z,22.00
2018-08-08T01:35:45.826Z,21.90
2018-08-08T01:38:13.454Z,21.90
2018-08-08T01:40:41.026Z,21.90
2018-08-08T01:43:08.702Z,21.90
2018-08-08T01:45:36.409Z,21.90
2018-08-08T01:48:04.072Z,21.90
2018-08-08T01:50:31.755Z,21.80
2018-08-08T01:52:59.354Z,21.80
2018-08-08T01:55:27.016Z,21.70
2018-08-08T01:57:54.765Z,21.70
2018-08-08T02:00:22.418Z,21.70
2018-08-08T02:02:50.063Z,21.60
2018-08-08T02:05:17.746Z,21.60
2018-08-08T02:07:45.360Z,21.50
2018-08-08T02:10:17.004Z,21.50
2018-08-08T02:12:44.614Z,21.50
2018-08-08T02:15:12.898Z,21.60
2018-08-08T02:18:43.367Z,21.60
2018-08-08T02:21:11.075Z,21.60
2018-08-08T02:23:38.665Z,21.60
2018-08-08T02:26:06.278Z,21.60
2018-08-08T02:28:33.918Z,21.70
2018-08-08T02:31:01.543Z,21.60
2018-08-08T02:33:32.911Z,21.60
2018-08-08T02:36:02.264Z,21.60
2018-08-08T02:38:29.959Z,21.60
2018-08-08T02:40:57.639Z,21.50
2018-08-08T02:43:25.347Z,21.50
2018-08-08T02:45:52.967Z,21.60
2018-08-08T02:48:20.692Z,21.60
2018-08-08T02:50:48.314Z,21.90
2018-08-08T02:53:16.991Z,21.80
2018-08-08T02:55:45.608Z,21.80
2018-08-08T02:58:13.150Z,21.80
2018-08-08T03:00:40.826Z,21.80
2018-08-08T03:03:08.567Z,21.80
2018-08-08T03:05:36.263Z,21.80
2018-08-08T03:08:03.934Z,21.90
2018-08-08T03:10:31.646Z,21.90
2018-08-08T03:12:59.296Z,21.90
2018-08-08T03:15:26.938Z,21.90
2018-08-08T03:17:54.662Z,22.00
2018-08-08T03:20:22.292Z,21.90
2018-08-08T03:22:49.918Z,21.90
2018-08-08T03:25:18.159Z,21.90
2018-08-08T03:27:46.502Z,21.90
2018-08-08T03:30:16.304Z,21.90
2018-08-08T03:32:43.998Z,21.90
2018-08-08T03:35:11.746Z,21.90
2018-08-08T03:37:39.551Z,21.80
2018-08-08T03:40:09.030Z,21.80
2018-08-08T03:42:36.698Z,21.90
2018-08-08T03:45:05.036Z,21.90
2018-08-08T03:47:32.628Z,21.90
2018-08-08T03:50:00.358Z,21.90
2018-08-08T03:52:28.066Z,21.80
2018-08-08T03:54:55.728Z,21.80
2018-08-08T03:57:23.336Z,21.80
2018-08-08T03:59:50.984Z,21.90
2018-08-08T04:02:18.886Z,21.90
2018-08-08T04:04:46.450Z,21.80
2018-08-08T04:07:14.382Z,21.80
2018-08-08T04:09:42.023Z,21.80
2018-08-08T04:12:09.590Z,21.80
2018-08-08T04:14:37.159Z,21.80
2018-08-08T04:17:04.848Z,21.80
2018-08-08T04:19:33.389Z,21.80
2018-08-08T04:22:01.006Z,21.80
2018-08-08T04:24:28.655Z,21.80
2018-08-08T04:26:56.307Z,21.80
2018-08-08T04:29:23.862Z,21.80
2018-08-08T04:31:51.507Z,22.00
2018-08-08T04:34:19.212Z,22.00
2018-08-08T04:36:46.867Z,22.00
2018-08-08T04:39:14.494Z,22.20
2018-08-08T04:41:42.163Z,22.40
2018-08-08T04:44:09.738Z,22.70
2018-08-08T04:46:37.346Z,22.80
2018-08-08T04:49:05.062Z,22.80
2018-08-08T04:51:32.736Z,22.80
2018-08-08T04:54:00.387Z,23.30
2018-08-08T04:56:28.013Z,23.40
2018-08-08T04:58:55.734Z,23.40
2018-08-08T05:01:23.398Z,23.70
2018-08-08T05:03:50.986Z,23.70
2018-08-08T05:06:18.614Z,24.00
2018-08-08T05:08:46.270Z,24.10
2018-08-08T05:11:13.945Z,24.00
2018-08-08T05:13:41.583Z,24.10
2018-08-08T05:16:09.270Z,23.90
2018-08-08T05:18:36.894Z,24.00
2018-08-08T05:21:04.507Z,23.90
2018-08-08T05:23:32.190Z,23.70
2018-08-08T05:25:59.830Z,23.70
2018-08-08T05:28:27.486Z,23.60
2018-08-08T05:30:55.207Z,23.60
2018-08-08T05:33:22.883Z,23.60
2018-08-08T05:35:50.542Z,23.50
2018-08-08T05:38:18.246Z,23.40
2018-08-08T05:40:45.892Z,23.40
2018-08-08T05:43:13.546Z,23.70
2018-08-08T05:45:41.138Z,23.60
2018-08-08T05:48:08.750Z,23.50
2018-08-08T05:50:36.474Z,23.50
2018-08-08T05:53:04.311Z,23.50
2018-08-08T05:55:32.026Z,23.50
2018-08-08T05:57:59.899Z,23.50
2018-08-08T06:00:29.239Z,23.70
2018-08-08T06:02:56.884Z,23.60
2018-08-08T06:05:24.681Z,23.70
2018-08-08T06:07:52.451Z,23.70
2018-08-08T06:10:20.070Z,23.70
2018-08-08T06:12:47.694Z,23.70
2018-08-08T06:15:16.801Z,23.70
2018-08-08T06:17:44.566Z,23.80
2018-08-08T06:20:14.637Z,23.80
2018-08-08T06:22:43.359Z,23.90
2018-08-08T06:25:10.976Z,24.00
2018-08-08T06:27:39.460Z,23.90
2018-08-08T06:30:13.343Z,23.90
2018-08-08T06:32:41.034Z,23.80
2018-08-08T06:35:08.732Z,23.90
2018-08-08T06:37:37.146Z,23.80
2018-08-08T06:40:05.235Z,23.80
2018-08-08T06:42:32.946Z,24.00
2018-08-08T06:45:00.574Z,24.00
2018-08-08T06:47:28.202Z,24.00
2018-08-08T06:49:57.774Z,23.90
2018-08-08T06:52:25.428Z,23.90
2018-08-08T06:54:53.129Z,23.80
2018-08-08T06:57:20.806Z,23.90
2018-08-08T06:59:48.447Z,24.00
2018-08-08T07:02:16.075Z,24.10
2018-08-08T07:04:47.211Z,24.10
2018-08-08T07:07:14.846Z,24.00
2018-08-08T07:09:42.418Z,24.00
2018-08-08T07:12:10.029Z,24.00
2018-08-08T07:14:37.754Z,24.30
2018-08-08T07:17:05.382Z,24.40
2018-08-08T07:19:33.154Z,24.50
2018-08-08T07:22:00.731Z,24.60
2018-08-08T07:24:28.430Z,24.70
2018-08-08T07:26:56.114Z,24.80
2018-08-08T07:29:23.849Z,24.80
2018-08-08T07:31:51.481Z,24.90
2018-08-08T07:34:19.182Z,24.90
2018-08-08T07:36:46.774Z,25.00
2018-08-08T07:39:14.394Z,25.20
2018-08-08T07:41:42.094Z,25.30
2018-08-08T07:44:09.648Z,25.20
2018-08-08T07:46:37.903Z,25.20
2018-08-08T07:49:05.882Z,25.10
2018-08-08T07:51:33.598Z,25.10
2018-08-08T07:54:01.182Z,25.00
2018-08-08T07:56:28.875Z,25.00
2018-08-08T07:58:56.530Z,24.90
2018-08-08T08:01:24.674Z,24.70
2018-08-08T08:03:52.274Z,24.80
2018-08-08T08:06:19.906Z,24.80
2018-08-08T08:08:47.430Z,24.70
2018-08-08T08:11:15.058Z,24.60
2018-08-08T08:13:42.606Z,24.70
2018-08-08T08:16:10.259Z,24.90
2018-08-08T08:18:37.858Z,25.10
2018-08-08T08:21:05.469Z,25.20
2018-08-08T08:23:33.082Z,25.50
2018-08-08T08:26:00.754Z,25.50
2018-08-08T08:28:29.386Z,25.50
2018-08-08T08:30:56.999Z,25.60
2018-08-08T08:33:24.574Z,25.60
2018-08-08T08:35:55.853Z,25.80
2018-08-08T08:38:23.441Z,25.80
2018-08-08T08:40:51.114Z,25.70
2018-08-08T08:43:18.602Z,25.70
2018-08-08T08:45:46.262Z,25.80
2018-08-08T08:48:13.780Z,25.70
2018-08-08T08:50:41.431Z,25.70
2018-08-08T08:53:09.121Z,25.60
2018-08-08T08:55:36.722Z,25.60
2018-08-08T08:58:04.410Z,25.50
2018-08-08T09:00:31.930Z,25.60
2018-08-08T09:02:59.566Z,25.60
2018-08-08T09:05:27.131Z,25.70
2018-08-08T09:07:54.722Z,25.70
2018-08-08T09:10:22.290Z,25.60
2018-08-08T09:12:49.854Z,25.80
2018-08-08T09:15:17.380Z,25.70
2018-08-08T09:17:45.005Z,25.70
2018-08-08T09:20:12.655Z,25.90
2018-08-08T09:22:40.298Z,26.00
2018-08-08T09:25:08.010Z,26.20
2018-08-08T09:27:35.692Z,26.40
2018-08-08T09:30:08.431Z,26.40
2018-08-08T09:32:36.818Z,26.40
2018-08-08T09:35:05.034Z,26.40
2018-08-08T09:37:32.634Z,26.30
2018-08-08T09:40:00.370Z,26.30
2018-08-08T09:42:27.939Z,26.20
2018-08-08T09:44:55.590Z,26.10
2018-08-08T09:47:23.246Z,26.00
2018-08-08T09:49:50.834Z,26.00
2018-08-08T09:52:18.522Z,26.10
2018-08-08T09:54:46.127Z,26.30
2018-08-08T09:57:17.230Z,26.70
2018-08-08T09:59:44.782Z,26.70
2018-08-08T10:02:18.055Z,26.80
2018-08-08T10:04:45.666Z,26.70
2018-08-08T10:07:13.305Z,27.00
2018-08-08T10:09:40.917Z,27.40
2018-08-08T10:12:08.543Z,27.20
2018-08-08T10:14:36.239Z,27.10
2018-08-08T10:17:03.834Z,27.20
2018-08-08T10:19:31.466Z,27.30
2018-08-08T10:21:59.115Z,27.50
2018-08-08T10:24:26.779Z,27.50
2018-08-08T10:26:54.407Z,27.70
2018-08-08T10:29:21.958Z,27.70
2018-08-08T10:31:49.527Z,27.70
2018-08-08T10:34:17.062Z,27.60
2018-08-08T10:36:44.670Z,27.60
2018-08-08T10:39:12.978Z,27.50
2018-08-08T10:41:40.994Z,27.40
2018-08-08T10:44:09.003Z,27.40
2018-08-08T10:46:36.634Z,27.40
2018-08-08T10:49:04.283Z,27.40
2018-08-08T10:51:32.110Z,27.30
2018-08-08T10:53:59.722Z,27.30
2018-08-08T10:56:27.735Z,27.30
2018-08-08T10:58:55.426Z,27.30
2018-08-08T11:01:23.054Z,27.40
2018-08-08T11:03:50.723Z,27.40
2018-08-08T11:06:18.299Z,27.40
2018-08-08T11:08:45.854Z,27.40
2018-08-08T11:11:13.547Z,27.40
2018-08-08T11:13:41.158Z,27.50
2018-08-08T11:16:08.682Z,27.50
2018-08-08T11:18:36.291Z,27.70
2018-08-08T11:21:03.902Z,27.70
2018-08-08T11:23:31.516Z,27.80
2018-08-08T11:25:59.147Z,27.90
2018-08-08T11:28:26.724Z,27.70
2018-08-08T11:30:54.314Z,27.70
2018-08-08T11:33:22.138Z,27.70
2018-08-08T11:35:49.791Z,27.80
2018-08-08T11:38:17.366Z,27.80
2018-08-08T11:40:44.987Z,28.00
2018-08-08T11:43:12.618Z,28.00
2018-08-08T11:45:40.318Z,27.90
2018-08-08T11:48:07.910Z,27.80
2018-08-08T11:50:35.534Z,27.90
2018-08-08T11:53:03.403Z,27.90
2018-08-08T11:55:31.010Z,28.00
2018-08-08T11:57:58.630Z,27.90
2018-08-08T12:00:26.304Z,28.00
2018-08-08T12:02:53.970Z,27.90
2018-08-08T12:05:21.604Z,28.10
2018-08-08T12:07:54.534Z,28.00
2018-08-08T12:10:22.322Z,28.20
2018-08-08T12:12:50.466Z,28.20
2018-08-08T12:15:18.283Z,28.10
2018-08-08T12:17:45.854Z,28.30
2018-08-08T12:20:13.439Z,28.40
2018-08-08T12:22:41.082Z,28.50
2018-08-08T12:25:08.686Z,28.30
2018-08-08T12:27:36.210Z,28.50
2018-08-08T12:30:05.417Z,28.50
2018-08-08T12:32:32.967Z,28.60
2018-08-08T12:35:00.603Z,28.70
2018-08-08T12:37:28.126Z,28.90
2018-08-08T12:39:55.736Z,28.90
2018-08-08T12:42:23.395Z,29.00
2018-08-08T12:44:51.010Z,28.70
2018-08-08T12:47:18.798Z,28.50
2018-08-08T12:49:46.430Z,28.40
2018-08-08T12:52:14.043Z,28.60
2018-08-08T12:54:41.554Z,28.80
2018-08-08T12:57:09.206Z,29.00
2018-08-08T12:59:36.788Z,29.10
2018-08-08T13:02:04.478Z,29.30
2018-08-08T13:04:32.050Z,29.10
2018-08-08T13:07:03.279Z,29.00
2018-08-08T13:09:30.804Z,29.50
2018-08-08T13:11:58.342Z,29.90
2018-08-08T13:14:25.967Z,30.60
2018-08-08T13:16:53.498Z,31.00
2018-08-08T13:19:21.054Z,32.10
2018-08-08T13:21:48.582Z,32.40
2018-08-08T13:24:16.267Z,32.70
2018-08-08T13:26:43.766Z,33.30
2018-08-08T13:29:11.386Z,33.60
2018-08-08T13:31:38.962Z,34.20
2018-08-08T13:34:06.762Z,34.40
2018-08-08T13:36:34.388Z,34.40
2018-08-08T13:39:01.967Z,34.00
2018-08-08T13:41:29.591Z,34.20
2018-08-08T13:43:57.273Z,34.80
2018-08-08T13:46:28.680Z,34.90
2018-08-08T13:48:56.274Z,33.90
2018-08-08T13:51:23.898Z,34.00
2018-08-08T13:53:51.586Z,33.90
2018-08-08T13:56:19.118Z,34.20
2018-08-08T13:58:46.770Z,34.70
2018-08-08T14:01:14.413Z,34.70
2018-08-08T14:03:41.928Z,35.00
2018-08-08T14:06:09.465Z,34.80
2018-08-08T14:08:36.988Z,34.30
2018-08-08T14:11:04.567Z,34.00
2018-08-08T14:13:32.141Z,34.50
2018-08-08T14:15:59.730Z,35.00
2018-08-08T14:18:30.926Z,35.20
2018-08-08T14:20:58.600Z,35.40
2018-08-08T14:23:26.170Z,35.10
2018-08-08T14:25:53.722Z,35.00
2018-08-08T14:28:21.290Z,35.00
2018-08-08T14:30:48.946Z,34.80
2018-08-08T14:33:16.646Z,34.90
2018-08-08T14:35:44.231Z,35.10
2018-08-08T14:38:11.784Z,35.10
2018-08-08T14:40:39.471Z,34.60
2018-08-08T14:43:07.037Z,34.60
2018-08-08T14:45:34.602Z,34.90
2018-08-08T14:48:02.115Z,34.80
2018-08-08T14:50:29.663Z,34.50
2018-08-08T14:52:57.272Z,34.30
2018-08-08T14:55:24.859Z,34.10
2018-08-08T14:57:52.521Z,34.50
2018-08-08T15:00:20.194Z,34.70
2018-08-08T15:02:47.779Z,34.20
2018-08-08T15:05:15.414Z,33.60
2018-08-08T15:07:43.009Z,32.90
2018-08-08T15:10:10.615Z,32.50
2018-08-08T15:12:38.251Z,32.50
2018-08-08T15:15:06.823Z,32.30
2018-08-08T15:17:35.470Z,32.30
2018-08-08T15:20:03.418Z,32.30
2018-08-08T15:22:31.137Z,32.30
2018-08-08T15:24:58.662Z,32.00
2018-08-08T15:27:26.174Z,31.80
2018-08-08T15:29:53.794Z,31.60
2018-08-08T15:32:21.496Z,31.30
2018-08-08T15:34:49.062Z,31.50
2018-08-08T15:37:17.100Z,31.70
2018-08-08T15:39:44.323Z,31.50
2018-08-08T15:42:11.919Z,31.40
2018-08-08T15:44:39.615Z,31.10
2018-08-08T15:47:07.446Z,30.80
2018-08-08T15:49:35.071Z,30.80
2018-08-08T15:52:02.740Z,30.50
2018-08-08T15:54:30.306Z,30.30
2018-08-08T15:56:57.917Z,30.40
2018-08-08T15:59:25.586Z,30.10
2018-08-08T16:01:53.192Z,30.10
2018-08-08T16:04:20.855Z,29.90
2018-08-08T16:06:48.486Z,30.00
2018-08-08T16:09:16.099Z,29.70
2018-08-08T16:11:43.666Z,29.50
2018-08-08T16:14:11.259Z,29.60
2018-08-08T16:16:38.842Z,29.50
2018-08-08T16:19:10.042Z,29.60
2018-08-08T16:21:37.630Z,29.40
2018-08-08T16:24:05.395Z,29.20
2018-08-08T16:26:33.255Z,29.20
2018-08-08T16:29:00.847Z,29.20
2018-08-08T16:31:28.494Z,29.20
2018-08-08T16:33:56.225Z,29.10
2018-08-08T16:36:23.802Z,29.00
2018-08-08T16:38:51.318Z,28.80
2018-08-08T16:41:18.942Z,28.80
2018-08-08T16:43:46.542Z,28.90
2018-08-08T16:46:14.190Z,28.70
2018-08-08T16:48:41.726Z,28.60
2018-08-08T16:51:09.298Z,28.70
2018-08-08T16:53:36.878Z,28.50
2018-08-08T16:56:04.430Z,28.40
2018-08-08T16:58:32.011Z,28.30
2018-08-08T17:00:59.690Z,28.20
2018-08-08T17:03:27.714Z,28.30
2018-08-08T17:05:55.286Z,28.40
2018-08-08T17:08:22.810Z,28.20
2018-08-08T17:10:50.422Z,28.30
2018-08-08T17:13:18.114Z,28.30
2018-08-08T17:15:45.742Z,28.40
2018-08-08T17:18:13.632Z,28.40
2018-08-08T17:20:41.340Z,28.30
2018-08-08T17:23:08.962Z,28.10
2018-08-08T17:25:36.528Z,28.10
2018-08-08T17:28:04.138Z,28.20
2018-08-08T17:30:31.857Z,28.00
2018-08-08T17:32:59.420Z,28.10
2018-08-08T17:35:27.079Z,28.20
2018-08-08T17:37:54.684Z,28.10
2018-08-08T17:40:22.334Z,28.00
2018-08-08T17:42:50.047Z,27.90
2018-08-08T17:45:17.634Z,27.70
2018-08-08T17:47:45.267Z,27.60
2018-08-08T17:50:12.918Z,27.70
2018-08-08T17:52:40.414Z,27.60
2018-08-08T17:55:08.013Z,27.40
2018-08-08T17:57:35.686Z,27.30
2018-08-08T18:00:04.006Z,27.20
2018-08-08T18:02:31.761Z,27.30
2018-08-08T18:04:59.304Z,27.40
2018-08-08T18:07:26.897Z,27.40
2018-08-08T18:09:54.525Z,27.30
2018-08-08T18:12:22.677Z,27.20
2018-08-08T18:14:53.164Z,27.20
2018-08-08T18:20:21.542Z,27.20
2018-08-08T18:22:48.993Z,27.20
2018-08-08T18:25:17.264Z,27.10
2018-08-08T18:27:45.948Z,27.00
2018-08-08T18:30:13.357Z,26.90
2018-08-08T18:32:40.749Z,26.80
2018-08-08T18:35:08.185Z,26.90
2018-08-08T18:37:35.596Z,26.80
2018-08-08T18:40:03.029Z,26.70
2018-08-08T18:42:31.078Z,26.40
2018-08-08T18:44:58.465Z,26.30
2018-08-08T18:47:26.109Z,26.20
2018-08-08T18:49:53.621Z,26.10
2018-08-08T18:52:21.257Z,26.10
2018-08-08T18:54:48.662Z,26.20
2018-08-08T18:57:16.022Z,26.00
2018-08-08T18:59:43.410Z,26.10
2018-08-08T19:02:11.061Z,26.20
2018-08-08T19:04:38.622Z,26.00
2018-08-08T19:07:06.109Z,25.90
2018-08-08T19:09:33.447Z,25.70
2018-08-08T19:12:01.089Z,25.50
2018-08-08T19:14:28.487Z,25.60
2018-08-08T19:16:55.965Z,25.40
2018-08-08T19:19:23.340Z,25.30
2018-08-08T19:21:50.691Z,25.30
2018-08-08T19:24:18.049Z,25.20
2018-08-08T19:26:45.929Z,25.10
2018-08-08T19:29:13.366Z,25.10
2018-08-08T19:31:40.761Z,25.10
2018-08-08T19:34:08.141Z,25.00
2018-08-08T19:36:35.530Z,24.90
2018-08-08T19:39:04.242Z,24.90
2018-08-08T19:41:31.690Z,24.80
2018-08-08T19:43:59.242Z,24.70
2018-08-08T19:46:26.610Z,24.70
2018-08-08T19:48:54.014Z,24.60
2018-08-08T19:51:21.398Z,24.50
2018-08-08T19:53:48.967Z,24.50
2018-08-08T19:56:16.381Z,24.40
2018-08-08T19:58:43.762Z,24.40
2018-08-08T20:01:11.237Z,24.30
2018-08-08T20:03:38.590Z,24.20
2018-08-08T20:06:06.135Z,24.20
2018-08-08T20:08:33.517Z,24.10
2018-08-08T20:11:04.258Z,24.10
2018-08-08T20:13:31.977Z,24.00
2018-08-08T20:16:00.153Z,23.90
2018-08-08T20:18:27.529Z,23.90
2018-08-08T20:20:55.613Z,23.80
2018-08-08T20:23:23.094Z,23.70
2018-08-08T20:25:50.625Z,23.70
2018-08-08T20:28:21.759Z,23.60
2018-08-08T20:30:49.997Z,23.60
2018-08-08T20:33:18.389Z,23.40
2018-08-08T20:35:45.844Z,23.30
2018-08-08T20:38:13.198Z,23.20
2018-08-08T20:40:41.202Z,23.20
2018-08-08T20:43:08.762Z,23.10
2018-08-08T20:45:36.169Z,23.00
2018-08-08T20:48:03.769Z,22.80
2018-08-08T20:50:31.196Z,22.80
2018-08-08T20:52:58.817Z,22.80
2018-08-08T20:55:26.357Z,22.80
2018-08-08T20:57:53.713Z,22.70
2018-08-08T21:00:21.361Z,22.60
2018-08-08T21:02:48.702Z,22.50
2018-08-08T21:05:16.046Z,22.50
2018-08-08T21:07:43.401Z,22.40
2018-08-08T21:10:10.801Z,22.40
2018-08-08T21:12:38.149Z,22.40
2018-08-08T21:15:05.520Z,22.30
2018-08-08T21:17:32.929Z,22.20
2018-08-08T21:20:00.225Z,22.10
2018-08-08T21:22:27.617Z,22.10
2018-08-08T21:24:54.957Z,22.10
2018-08-08T21:27:22.326Z,22.00
2018-08-08T21:29:49.677Z,21.90
2018-08-08T21:32:17.065Z,21.80
2018-08-08T21:34:44.451Z,21.80
2018-08-08T21:37:11.791Z,21.80
2018-08-08T21:39:39.194Z,21.70
2018-08-08T21:42:06.621Z,21.60
2018-08-08T21:44:33.982Z,21.60
2018-08-08T21:47:01.325Z,21.50
2018-08-08T21:49:28.674Z,21.40
2018-08-08T21:51:56.030Z,21.40
2018-08-08T21:54:34.933Z,21.40
2018-08-08T21:57:13.740Z,21.30
2018-08-08T22:00:51.363Z,21.30
2018-08-08T22:03:30.307Z,21.30
2018-08-08T22:06:09.165Z,21.20
2018-08-08T22:08:48.014Z,21.20
2018-08-08T22:11:27.005Z,21.20
2018-08-08T22:14:05.969Z,21.20
2018-08-08T22:16:44.846Z,21.20
2018-08-08T22:19:24.430Z,21.20
2018-08-08T22:21:52.944Z,21.10
2018-08-08T22:24:21.888Z,21.10
2018-08-08T22:26:49.430Z,21.00
2018-08-08T22:29:16.773Z,21.00
2018-08-08T22:31:44.142Z,21.00
2018-08-08T22:34:11.497Z,20.80
2018-08-08T22:36:39.026Z,20.80
2018-08-08T22:39:08.890Z,20.80
2018-08-08T22:41:36.305Z,20.80
2018-08-08T22:44:03.661Z,20.80
2018-08-08T22:46:31.301Z,20.70
2018-08-08T22:48:58.662Z,20.60
2018-08-08T22:51:26.546Z,20.60
2018-08-08T22:56:02.097Z,20.70
2018-08-08T22:58:29.442Z,20.70
2018-08-08T23:00:56.798Z,20.70
2018-08-08T23:03:24.137Z,20.80
2018-08-08T23:05:51.523Z,20.80
2018-08-08T23:08:18.881Z,21.00
2018-08-08T23:10:46.307Z,21.00
2018-08-08T23:13:13.619Z,21.00
2018-08-08T23:15:40.989Z,21.10
2018-08-08T23:18:08.338Z,21.20
2018-08-08T23:20:36.686Z,21.30
2018-08-08T23:23:04.057Z,21.30
2018-08-08T23:25:31.393Z,21.30
2018-08-08T23:27:58.742Z,21.40
2018-08-08T23:30:26.109Z,21.40
2018-08-08T23:32:53.466Z,21.40
2018-08-08T23:35:20.825Z,21.40
2018-08-08T23:37:48.185Z,21.40
2018-08-08T23:40:15.517Z,21.40
2018-08-08T23:42:42.889Z,21.40
2018-08-08T23:45:10.266Z,21.40
2018-08-08T23:47:37.725Z,21.40
2018-08-08T23:50:05.544Z,21.40
2018-08-08T23:52:32.915Z,21.40
2018-08-08T23:55:04.070Z,21.40
2018-08-08T23:57:31.526Z,21.40
2018-08-08T23:59:58.862Z,21.40
